OPA Logo
 

ASOS: KRDM
At:2018.01.17 1856 UTC
Wind:180° @ 10KT
Viz: 10 mile(s)
Sky: clear
Temp: 51.1 F (10.6 C)
DewP: 39.0 F (3.9 C)
RH: 63%
Baro: 30.08 in.
ob: KRDM 171856Z 18010KT 10SM CLR 11/04 A3008 RMK AO2 SLP195 T01060039
Apache-SSL Logo

Valid HTML 4.01!

Central Oregon OPA Chapter

Chapter Officers 2006:

President
Gary E. Miller
109 NW Wilmington Ave.
Bend OR 97701
541 382-8588
gem@rellim.com

Vice President:
Open

Secretary/Treasurer:
Don Wilfong
210 SE Cessna Dr
Bend OR 97702
541 389-1456
dwnw@bendbroadband.com


Web page by: gem@rellim.com